Thursday, April 19, 2018, 5:02 PM EDT
Back to Local

KGSB, Seymour-johnson Air Force Base

Location: Goldsboro, NC, United States Lat: 35.333
Local Time: 5:02 PM EDT (21:02 GMT) Lon: -77.967
Time Zone: US/Eastern Elev: 108 ft

Show me the last for .
Show Decoded

2018-04-19 16:31 METAR KGSB 192031Z AUTO 33020G24KT 10SM BKN080 26/05 A2983 RMK AO2 WSHFT 22
                 SLP104 $ =
2018-04-19 15:56 METAR KGSB 191956Z AUTO 30014G22KT 10SM SCT075 SCT095 27/08 A2980 RMK AO2 SLP093
                 T02650075 $ =
2018-04-19 14:56 METAR KGSB 191856Z AUTO 29013KT 10SM FEW090 FEW160 28/11 A2978 RMK AO2 SLP087
                 T02750111 $ =
2018-04-19 13:57 METAR KGSB 191757Z AUTO 30013G25KT 10SM SCT060 SCT170 27/13 A2977 RMK AO2 WSHFT
                 52 SLP083 $ =
2018-04-19 13:56 METAR KGSB 191756Z AUTO 28016G25KT 10SM SCT060 SCT170 27/12 A2977 RMK AO2 SLP083
                 T02720124 10277 20200 50000 $ =
2018-04-19 13:22 METAR KGSB 191722Z AUTO 29014G22KT 10SM SCT055 26/13 A2976 RMK AO2 WSHFT 15
                 SLP080 $ =
2018-04-19 12:56 METAR KGSB 191656Z AUTO 27015G20KT 10SM SCT055 27/13 A2976 RMK AO2 SLP080
                 T02660133 $ =
2018-04-19 11:56 METAR KGSB 191556Z AUTO 26012KT 10SM FEW050 BKN060 25/14 A2977 RMK AO2 SLP083
                 T02500135 $ =
2018-04-19 10:56 METAR KGSB 191456Z AUTO 25017G22KT 10SM CLR 25/13 A2977 RMK AO2 SLP083 T02520131
                 53008 $ =
2018-04-19 09:56 METAR KGSB 191356Z AUTO 25014KT 10SM CLR 24/13 A2975 RMK AO2 SLP076 T02380130 $
                 =
2018-04-19 08:56 METAR KGSB 191256Z AUTO 24017KT 10SM CLR 22/12 A2974 RMK AO2 SLP073 T02180121 $
                 =
2018-04-19 07:56 METAR KGSB 191156Z AUTO 23010KT 10SM CLR 20/11 A2974 RMK AO2 SLP073 T01990111
                 10231 20190 52014 $ =
2018-04-19 06:56 METAR KGSB 191056Z AUTO 23011KT 10SM CLR 19/11 A2972 RMK AO2 SLP066 T01910109 $
                 =
2018-04-19 05:56 METAR KGSB 190956Z AUTO 22009KT 10SM CLR 20/11 A2971 RMK AO2 SLP063 T02000109 $
                 =
2018-04-19 04:56 METAR KGSB 190856Z AUTO 23012KT 10SM CLR 22/11 A2970 RMK AO2 SLP059 T02170105
                 55004 $ =
2018-04-19 03:56 METAR KGSB 190756Z AUTO 23016KT 10SM CLR 23/10 A2969 RMK AO2 SLP056 T02260104 $
                 =
2018-04-19 02:56 METAR KGSB 190656Z AUTO 24015G23KT 10SM CLR 23/10 A2970 RMK AO2 SLP059 T02280099
                 $ =
2018-04-19 02:53 METAR KGSB 190653Z 23017G23KT 10SM CLR 23/10 A2970 RMK SLP059 $ =
2018-04-19 01:56 METAR KGSB 190556Z AUTO 23011KT 10SM CLR 21/09 A2971 RMK AO2 SLP063 T02100092
                 10246 20193 57013 $ =
2018-04-19 00:56 METAR KGSB 190456Z AUTO 22008KT 10SM CLR 19/10 A2973 RMK AO2 SLP070 T01940098
                 402830075 $ =
2018-04-18 23:56 METAR KGSB 190356Z AUTO 19007KT 10SM CLR 20/09 A2974 RMK AO2 SLP073 T01950088 $
                 =
2018-04-18 22:56 METAR KGSB 190256Z AUTO 22009KT 10SM CLR 22/07 A2975 RMK AO2 SLP077 T02200066
                 53004 $ =
2018-04-18 21:56 METAR KGSB 190156Z AUTO 21008KT 10SM CLR 23/06 A2975 RMK AO2 SLP077 T02280057 $
                 =
2018-04-18 20:56 METAR KGSB 190056Z AUTO 19008KT 10SM CLR 23/06 A2974 RMK AO2 SLP073 T02320056 $
                 =
2018-04-18 19:56 METAR KGSB 182356Z AUTO 19006KT 10SM CLR 25/07 A2974 RMK AO2 SLP073 T02450072
                 10283 20245 57014 $ =
2018-04-18 18:56 METAR KGSB 182256Z AUTO 19006KT 10SM CLR 27/09 A2976 RMK AO2 SLP080 T02680092 $
                 =
2018-04-18 17:56 METAR KGSB 182156Z AUTO 22012G19KT 10SM CLR 28/09 A2977 RMK AO2 SLP084 T02780086
                 $ =

Support USWX by starting your Amazon purchase here.